Briefing drone pour Firminy

Rechercher une autre localisation

Conditions de vol :


Nous sommes le : Samedi 04 février 2023
Il est 21:09 UTC (22:09 LT)

Lever de soleil : 06:33 UTC (07:33 LT)
Coucher de soleil : 17:19 UTC (18:19 LT)

Météo

L'essentiel des conditions de vol

VIGILANCE MÉTÉO FRANCE - Loire (42)
Pas de vigilances particulieres
METAR de LFMH
LFMH 042100Z AUTO 32008KT 290V350 9999 OVC008 07/06 Q1035

Date d'émission: 04/02/2023
Heure d'émission: 21:00 UTC
Vent: 320° (variable du 290° au 350°) pour 8 KT (15 km/h)
Visibilité horizontale: > 10 km
Plafond :
- Couvert à 800ft (244m)
Température: 7 °C
Point de rosée: 6 °C
Humidité: 93%
Pression (QNH): 1035 hPa
TAF de LFMH
LFMH 161901Z 1619/1712 CNL

Conditions prévues :

Heure d'émission : Bulletin éffectué le 16 à 19:00 UTC
Prévision : Valide du 16 a 19:00 UTC au 17 a 12:00 UTC
Nuages : à 0ft (0 m)
WEBCAM POUR FIRMINY

Réglementation

Voler en sécurité

CARTES AERONAUTIQUE 1/500.000
CARTE AZBA (Reseau basse altitude)
CARTES VAC (LFMH)
SUP AIP




Chargement des AIP...
NOTAM (FIRMINY + Terrain à proximité / FIR )




Chargement des NOTAMS...
CONTACT PREFECTURE 42
Loire (42) : [email protected]


Avertissement : Les données mises à disposition sont indicatives. Oxygène Drone ne pourra être tenu responsable de dégâts causés aux biens et aux personnes.